Time;durP1;ratioP1;P1;durP2;ratioP2;P2;SDS_P1;SDS_P2;PMS_P1;PMS_P2;Temp;Humidity;BMP_temperature;BMP_pressure;BME280_temperature;BME280_humidity;BME280_pressure;Samples;Min_cycle;Max_cycle;Signal;HPM_P1;HPM_P2
2022/03/26 00:00:50;;;;;;;22.23;12.80;;;;;;;8.93;38.24;95910.69;5063102;28;20688;-71
2022/03/26 00:03:16;;;;;;;19.88;10.82;;;;;;;8.77;38.41;95925.25;5064917;28;20244;-71
2022/03/26 00:05:44;;;;;;;35.40;19.45;;;;;;;8.65;38.88;95920.38;5064384;28;20201;-72
2022/03/26 00:08:11;;;;;;;29.90;16.90;;;;;;;8.80;38.45;95920.16;5066014;28;20859;-72
2022/03/26 00:10:38;;;;;;;19.65;12.63;;;;;;;9.07;37.84;95924.03;5065824;28;20205;-71
2022/03/26 00:13:05;;;;;;;21.75;11.45;;;;;;;9.19;37.90;95918.75;5067070;28;20278;-72
2022/03/26 00:15:34;;;;;;;24.63;10.88;;;;;;;9.05;37.98;95923.19;5065410;28;20210;-71
2022/03/26 00:18:01;;;;;;;16.42;10.20;;;;;;;8.86;38.29;95915.84;5066111;28;20217;-71
2022/03/26 00:20:27;;;;;;;14.60;10.10;;;;;;;9.11;37.88;95921.44;5065210;28;20198;-72
2022/03/26 00:22:54;;;;;;;22.08;11.48;;;;;;;9.25;37.45;95920.38;5066543;28;20237;-71
2022/03/26 00:25:22;;;;;;;21.25;10.45;;;;;;;9.27;36.98;95921.19;5066531;28;20605;-71
2022/03/26 00:27:50;;;;;;;20.15;11.00;;;;;;;9.36;36.77;95926.13;5064598;28;20617;-72
2022/03/26 00:30:17;;;;;;;14.88;10.10;;;;;;;9.51;36.80;95916.56;5066163;28;20221;-72
2022/03/26 00:32:45;;;;;;;24.63;11.55;;;;;;;9.36;36.81;95924.44;5066841;28;20648;-71
2022/03/26 00:35:12;;;;;;;16.80;10.10;;;;;;;9.12;37.94;95922.25;5066860;28;20201;-72
2022/03/26 00:37:40;;;;;;;21.80;11.30;;;;;;;8.98;38.41;95922.44;5065996;28;20206;-72
2022/03/26 00:40:08;;;;;;;22.17;11.40;;;;;;;9.11;37.98;95913.81;5067961;28;20597;-72
2022/03/26 00:42:35;;;;;;;20.58;11.05;;;;;;;9.38;37.56;95922.72;5065494;28;20328;-72
2022/03/26 00:45:02;;;;;;;24.45;11.85;;;;;;;9.31;37.00;95926.19;5065970;28;20209;-71
2022/03/26 00:47:29;;;;;;;18.90;10.60;;;;;;;9.08;38.08;95930.78;5064960;28;20285;-71
2022/03/26 00:49:57;;;;;;;16.95;11.07;;;;;;;8.98;38.05;95932.59;5067210;28;20251;-71
2022/03/26 00:52:24;;;;;;;20.95;11.07;;;;;;;9.00;38.22;95932.56;5066253;28;20662;-72
2022/03/26 00:54:51;;;;;;;22.00;10.63;;;;;;;8.80;38.21;95935.38;5066129;28;20229;-72
2022/03/26 00:57:18;;;;;;;25.40;11.82;;;;;;;8.46;39.46;95942.53;5065258;28;20762;-72
2022/03/26 00:59:45;;;;;;;21.80;10.75;;;;;;;8.18;40.22;95945.31;5065753;28;20201;-71
2022/03/26 01:02:12;;;;;;;16.83;10.93;;;;;;;8.00;41.31;95950.56;5064299;28;20257;-72
2022/03/26 01:04:39;;;;;;;27.00;10.60;;;;;;;8.37;39.63;95942.66;5066786;28;20209;-71
2022/03/26 01:07:08;;;;;;;21.83;12.88;;;;;;;8.70;39.21;95949.84;5064376;28;20213;-71
2022/03/26 01:09:35;;;;;;;20.38;10.95;;;;;;;8.59;39.59;95949.13;5065250;28;20222;-71
2022/03/26 01:12:02;;;;;;;41.47;18.65;;;;;;;8.62;39.26;95959.25;5064328;28;20217;-71
2022/03/26 01:14:29;;;;;;;24.33;14.93;;;;;;;8.55;39.40;95960.16;5064997;28;20258;-72
2022/03/26 01:16:56;;;;;;;25.65;14.30;;;;;;;8.50;40.13;95956.84;5064150;28;20221;-71
2022/03/26 01:19:23;;;;;;;22.30;12.88;;;;;;;8.51;39.81;95955.97;5064330;28;21703;-71
2022/03/26 01:21:50;;;;;;;22.25;14.73;;;;;;;8.59;40.07;95950.84;5064445;28;20797;-71
2022/03/26 01:24:18;;;;;;;29.08;16.85;;;;;;;8.56;40.95;95961.84;5065754;28;20237;-71
2022/03/26 01:26:45;;;;;;;29.73;15.40;;;;;;;8.59;40.05;95966.88;5066050;28;20263;-71
2022/03/26 01:29:12;;;;;;;30.95;16.90;;;;;;;8.50;40.25;95964.44;5064476;28;20205;-71
2022/03/26 01:31:39;;;;;;;29.40;13.75;;;;;;;8.08;40.56;95971.59;5064011;28;20205;-72
2022/03/26 01:34:06;;;;;;;40.55;18.50;;;;;;;8.16;41.59;95971.53;5064312;28;20665;-71
2022/03/26 01:36:33;;;;;;;25.58;12.27;;;;;;;8.19;40.65;95971.47;5063956;28;20288;-71
2022/03/26 01:38:59;;;;;;;21.60;12.80;;;;;;;8.17;40.41;95968.94;5063248;28;20259;-72
2022/03/26 01:41:27;;;;;;;26.58;12.73;;;;;;;8.43;40.79;95972.94;5063180;28;20231;-71
2022/03/26 01:43:54;;;;;;;29.15;13.15;;;;;;;8.47;41.53;95972.06;5062294;28;20283;-72
2022/03/26 01:46:21;;;;;;;27.27;11.93;;;;;;;8.30;40.94;95969.69;5063384;28;20294;-72
2022/03/26 01:48:48;;;;;;;24.30;13.10;;;;;;;8.25;41.26;95975.66;5065516;28;20210;-71
2022/03/26 01:51:16;;;;;;;25.60;12.70;;;;;;;8.13;41.33;95972.41;5065435;28;20206;-71
2022/03/26 01:53:44;;;;;;;22.60;12.18;;;;;;;7.73;42.33;95971.06;5066581;28;20829;-71
2022/03/26 01:56:12;;;;;;;27.15;12.90;;;;;;;7.33;43.55;95968.81;5064828;28;20208;-72
2022/03/26 01:58:40;;;;;;;21.50;12.32;;;;;;;7.42;43.45;95971.28;5063752;28;20202;-71
2022/03/26 02:01:07;;;;;;;24.45;13.60;;;;;;;7.74;42.99;95975.25;5064932;28;20210;-71
2022/03/26 02:03:34;;;;;;;41.50;19.15;;;;;;;7.79;42.33;95976.06;5065118;28;20523;-71
2022/03/26 02:06:01;;;;;;;33.85;18.52;;;;;;;7.83;42.90;95973.50;5066230;28;21123;-71
2022/03/26 02:08:28;;;;;;;30.20;16.88;;;;;;;7.81;43.26;95979.44;5065309;28;20245;-72
2022/03/26 02:10:55;;;;;;;34.28;15.98;;;;;;;7.78;42.46;95979.44;5067770;28;20230;-71
2022/03/26 02:13:21;;;;;;;26.52;13.77;;;;;;;7.76;43.49;95986.22;5068299;28;20681;-71
2022/03/26 02:15:50;;;;;;;37.13;13.95;;;;;;;7.37;44.11;95985.66;5067935;28;20750;-72
2022/03/26 02:18:16;;;;;;;25.92;12.80;;;;;;;7.23;44.51;95979.00;5068661;28;20266;-71
2022/03/26 02:20:46;;;;;;;29.10;12.55;;;;;;;7.35;44.13;95974.72;5069384;28;20270;-72
2022/03/26 02:23:12;;;;;;;34.60;13.30;;;;;;;7.57;43.13;95979.63;5067166;28;20242;-71
2022/03/26 02:25:39;;;;;;;29.77;12.10;;;;;;;7.28;43.96;95979.81;5068443;28;20297;-72
2022/03/26 02:28:07;;;;;;;19.38;12.27;;;;;;;7.06;45.02;95982.47;5067471;28;20782;-71
2022/03/26 02:30:34;;;;;;;25.40;12.88;;;;;;;7.17;44.20;95987.47;5068521;28;20281;-71
2022/03/26 02:33:01;;;;;;;24.50;11.98;;;;;;;7.42;43.59;95985.63;5068589;28;20205;-71
2022/03/26 02:35:28;;;;;;;17.98;11.30;;;;;;;7.59;43.04;95988.03;5067390;28;20226;-71
2022/03/26 02:37:56;;;;;;;24.48;12.30;;;;;;;7.54;43.09;95994.81;5067727;28;20285;-71
2022/03/26 02:40:23;;;;;;;24.13;12.00;;;;;;;7.60;43.41;95984.66;5069457;28;20198;-73
2022/03/26 02:42:50;;;;;;;35.53;18.33;;;;;;;7.70;43.02;95991.31;5068576;28;20723;-71
2022/03/26 02:45:17;;;;;;;48.00;28.70;;;;;;;7.51;43.57;95999.03;5067262;28;20206;-71
2022/03/26 02:47:43;;;;;;;31.58;15.30;;;;;;;7.54;43.25;95990.59;5068398;28;20653;-72
2022/03/26 02:50:10;;;;;;;28.20;12.38;;;;;;;7.40;43.99;95988.16;5066824;28;20302;-71
2022/03/26 02:52:37;;;;;;;25.52;13.38;;;;;;;7.37;43.58;95988.19;5068320;28;20719;-72
2022/03/26 02:55:09;;;;;;;20.98;11.43;;;;;;;7.53;43.32;95988.91;5067959;28;20775;-71
2022/03/26 02:57:37;;;;;;;23.45;11.27;;;;;;;7.31;43.21;95988.22;5068005;28;20206;-71
2022/03/26 03:00:07;;;;;;;25.00;12.80;;;;;;;7.21;44.00;95996.69;5066863;28;20201;-71
2022/03/26 03:02:34;;;;;;;46.42;24.10;;;;;;;7.09;44.30;95996.78;5067645;28;20917;-71
2022/03/26 03:05:01;;;;;;;37.45;16.60;;;;;;;6.94;44.75;95990.09;5066725;28;22039;-70
2022/03/26 03:07:28;;;;;;;22.73;14.18;;;;;;;6.95;44.51;95998.50;5068006;28;20749;-71
2022/03/26 03:09:55;;;;;;;22.58;11.73;;;;;;;7.03;44.39;95996.81;5067510;28;20359;-71
2022/03/26 03:12:23;;;;;;;18.40;11.32;;;;;;;6.82;45.04;96002.78;5068338;28;20310;-71
2022/03/26 03:14:50;;;;;;;24.90;13.27;;;;;;;6.76;44.86;96003.66;5066797;28;20225;-70
2022/03/26 03:17:17;;;;;;;21.92;12.40;;;;;;;6.71;44.96;96002.81;5068725;28;20783;-71
2022/03/26 03:19:44;;;;;;;17.55;10.65;;;;;;;6.58;45.60;96002.88;5066527;28;20202;-71
2022/03/26 03:22:10;;;;;;;29.05;12.82;;;;;;;6.67;45.53;96001.19;5068019;28;20272;-71
2022/03/26 03:24:37;;;;;;;30.38;14.38;;;;;;;6.61;45.72;96008.78;5068505;28;20225;-72
2022/03/26 03:27:05;;;;;;;24.77;14.02;;;;;;;6.88;44.63;96007.00;5066746;28;20225;-71
2022/03/26 03:29:34;;;;;;;30.08;14.45;;;;;;;6.85;44.87;96002.78;5066375;28;20205;-71
2022/03/26 03:32:01;;;;;;;29.45;13.88;;;;;;;7.00;44.94;95997.66;5066858;28;20288;-71
2022/03/26 03:34:28;;;;;;;21.08;12.05;;;;;;;7.03;44.28;96001.84;5067902;28;20259;-71
2022/03/26 03:36:55;;;;;;;29.25;13.05;;;;;;;7.15;44.16;96001.81;5067427;28;20332;-71
2022/03/26 03:39:23;;;;;;;28.02;13.80;;;;;;;7.11;44.19;96007.72;5066955;28;20233;-72
2022/03/26 03:41:50;;;;;;;28.65;13.75;;;;;;;7.02;44.34;96006.06;5067209;28;20609;-71
2022/03/26 03:44:16;;;;;;;32.83;14.88;;;;;;;6.54;45.23;96011.31;5066098;28;20785;-71
2022/03/26 03:46:44;;;;;;;20.45;13.68;;;;;;;6.43;45.28;96006.31;5066087;28;20233;-72
2022/03/26 03:49:11;;;;;;;24.27;13.52;;;;;;;6.54;45.35;96007.09;5067215;28;20310;-72
2022/03/26 03:51:38;;;;;;;30.38;13.80;;;;;;;6.60;45.29;96012.13;5066963;28;20205;-72
2022/03/26 03:54:05;;;;;;;30.65;13.27;;;;;;;6.70;44.70;96007.88;5068175;28;20673;-72
2022/03/26 03:56:32;;;;;;;35.33;15.43;;;;;;;6.64;45.01;96012.97;5066472;28;20212;-71
2022/03/26 03:58:58;;;;;;;26.60;14.02;;;;;;;6.52;44.89;96013.84;5065723;28;20237;-71
2022/03/26 04:01:25;;;;;;;27.88;13.75;;;;;;;6.52;45.67;96018.03;5065733;28;21735;-72
2022/03/26 04:03:54;;;;;;;32.80;14.05;;;;;;;6.58;45.03;96018.88;5068192;28;20238;-72
2022/03/26 04:06:20;;;;;;;25.40;13.18;;;;;;;6.68;44.85;96023.03;5066983;28;21033;-72
2022/03/26 04:08:47;;;;;;;21.63;14.02;;;;;;;6.54;45.58;96031.50;5066516;28;20263;-72
2022/03/26 04:11:14;;;;;;;15.65;10.55;;;;;;;6.13;45.95;96025.69;5065378;28;20876;-71
2022/03/26 04:13:41;;;;;;;18.40;11.30;;;;;;;5.96;46.68;96037.47;5066273;28;20606;-71
2022/03/26 04:16:08;;;;;;;16.40;10.82;;;;;;;5.74;47.08;96028.19;5066369;28;20202;-71
2022/03/26 04:18:35;;;;;;;18.73;9.55;;;;;;;5.39;47.71;96039.09;5066836;28;20207;-72
2022/03/26 04:21:03;;;;;;;16.20;10.63;;;;;;;5.03;49.09;96046.53;5065390;28;21084;-71
2022/03/26 04:23:30;;;;;;;18.00;11.65;;;;;;;5.01;49.03;96045.69;5067271;28;20236;-71
2022/03/26 04:25:56;;;;;;;21.95;12.35;;;;;;;4.52;50.73;96039.59;5067718;28;20205;-71
2022/03/26 04:28:23;;;;;;;27.65;13.13;;;;;;;4.77;49.84;96046.44;5065441;28;20206;-72
2022/03/26 04:30:50;;;;;;;24.40;15.35;;;;;;;5.06;48.75;96051.59;5066114;28;20205;-71
2022/03/26 04:33:17;;;;;;;21.90;12.00;;;;;;;5.04;49.12;96051.56;5066130;28;20206;-72
2022/03/26 04:35:44;;;;;;;21.25;12.98;;;;;;;5.06;49.28;96047.38;5066970;28;20251;-71
2022/03/26 04:38:12;;;;;;;24.17;14.13;;;;;;;5.19;49.01;96060.88;5067356;28;20220;-71
2022/03/26 04:40:39;;;;;;;22.70;12.10;;;;;;;5.16;48.90;96055.84;5066157;28;20242;-71
2022/03/26 04:43:06;;;;;;;22.35;13.98;;;;;;;5.23;48.91;96060.03;5064442;28;20201;-71
2022/03/26 04:45:33;;;;;;;24.63;12.40;;;;;;;5.30;48.62;96063.41;5065896;28;20712;-71
2022/03/26 04:48:00;;;;;;;26.52;13.57;;;;;;;5.23;48.66;96062.53;5065497;28;20202;-71
2022/03/26 04:50:27;;;;;;;18.88;11.20;;;;;;;5.35;48.23;96072.69;5067027;28;20205;-71
2022/03/26 04:52:54;;;;;;;28.52;12.07;;;;;;;5.85;46.74;96064.38;5066268;28;20250;-71
2022/03/26 04:55:22;;;;;;;25.45;12.07;;;;;;;6.72;44.87;96066.81;5064987;28;20197;-71
2022/03/26 04:57:51;;;;;;;17.75;10.82;;;;;;;7.47;42.60;96069.88;5065498;28;20198;-71
2022/03/26 05:00:19;;;;;;;32.85;12.20;;;;;;;8.09;41.99;96072.00;5062703;28;21304;-71
2022/03/26 05:02:46;;;;;;;21.83;12.07;;;;;;;8.28;40.87;96066.78;5064999;28;20669;-71
2022/03/26 05:05:15;;;;;;;29.77;13.18;;;;;;;8.78;40.73;96064.63;5064994;28;20324;-71
2022/03/26 05:07:48;;;;;;;23.77;12.73;;;;;;;9.06;39.74;96074.47;5063466;28;20209;-71
2022/03/26 05:10:17;;;;;;;28.63;14.68;;;;;;;9.43;39.46;96067.25;5064512;28;20201;-72
2022/03/26 05:12:45;;;;;;;20.77;11.68;;;;;;;9.96;38.64;96074.09;5065416;28;20224;-71
2022/03/26 05:15:13;;;;;;;16.23;12.80;;;;;;;10.72;37.09;96067.78;5065077;28;20801;-72
2022/03/26 05:17:41;;;;;;;21.00;12.98;;;;;;;11.56;35.45;96066.16;5065044;28;20293;-72
2022/03/26 05:20:09;;;;;;;27.55;11.98;;;;;;;12.57;33.48;96067.19;5067165;28;20202;-72
2022/03/26 05:22:37;;;;;;;16.65;10.77;;;;;;;13.53;32.07;96070.56;5065603;28;20229;-72
2022/03/26 05:25:04;;;;;;;17.85;11.93;;;;;;;14.20;30.91;96063.38;5065935;28;20236;-71
2022/03/26 05:27:31;;;;;;;20.58;13.48;;;;;;;15.34;30.03;96066.38;5065689;28;20661;-71
2022/03/26 05:30:00;;;;;;;27.33;13.10;;;;;;;16.77;27.62;96065.09;5064878;28;20730;-71
2022/03/26 05:32:27;;;;;;;18.92;12.38;;;;;;;17.22;26.46;96070.00;5063818;28;20190;-71
2022/03/26 05:34:53;;;;;;;18.92;13.38;;;;;;;16.19;27.30;96063.13;5066104;28;20209;-72
2022/03/26 05:37:21;;;;;;;20.75;11.02;;;;;;;16.67;27.24;96064.63;5064718;28;20225;-71
2022/03/26 05:39:47;;;;;;;14.65;11.07;;;;;;;16.64;26.79;96069.88;5065150;28;20228;-71
2022/03/26 05:42:14;;;;;;;28.65;16.90;;;;;;;17.03;26.54;96066.56;5060873;28;20293;-71
2022/03/26 05:44:41;;;;;;;46.75;24.75;;;;;;;17.02;26.49;96067.47;5069388;28;20302;-71
2022/03/26 05:47:10;;;;;;;30.77;17.83;;;;;;;18.87;24.81;96071.69;5068644;28;20263;-71
2022/03/26 05:49:37;;;;;;;24.15;15.45;;;;;;;20.83;22.34;96065.38;5068476;28;20209;-73
2022/03/26 05:52:05;;;;;;;29.88;19.02;;;;;;;20.83;21.87;96073.13;5067504;28;20193;-73
2022/03/26 05:54:31;;;;;;;19.67;12.95;;;;;;;20.96;22.12;96076.69;5069282;28;20209;-72
2022/03/26 05:56:58;;;;;;;20.33;11.38;;;;;;;21.13;21.63;96069.69;5068129;28;20759;-71
2022/03/26 05:59:26;;;;;;;12.95;11.52;;;;;;;21.89;21.40;96070.22;5069256;28;20209;-71
2022/03/26 06:01:54;;;;;;;14.45;11.57;;;;;;;23.22;19.99;96067.66;5066231;28;20229;-72
2022/03/26 06:04:24;;;;;;;18.85;11.65;;;;;;;23.27;19.31;96068.16;5069212;28;20226;-72
2022/03/26 06:06:51;;;;;;;19.13;11.35;;;;;;;22.88;20.02;96072.50;5067104;28;20232;-70
2022/03/26 06:09:18;;;;;;;18.67;11.75;;;;;;;21.91;20.51;96066.63;5068368;28;20198;-70
2022/03/26 06:11:47;;;;;;;19.65;11.82;;;;;;;22.89;19.80;96073.34;5068169;28;20204;-72
2022/03/26 06:14:16;;;;;;;19.73;11.95;;;;;;;23.39;19.37;96068.16;5068255;28;20204;-72
2022/03/26 06:16:43;;;;;;;19.80;11.77;;;;;;;23.48;19.11;96077.09;5067091;28;20267;-72
2022/03/26 06:19:11;;;;;;;17.80;12.40;;;;;;;22.46;20.02;96078.69;5068970;28;20239;-71
2022/03/26 06:21:39;;;;;;;18.90;11.55;;;;;;;23.04;19.43;96075.72;5068825;28;20229;-71
2022/03/26 06:24:06;;;;;;;24.05;12.02;;;;;;;22.51;19.93;96081.84;5069025;28;20222;-72
2022/03/26 06:26:34;;;;;;;21.42;14.70;;;;;;;24.79;18.35;96072.94;5068838;28;20202;-71
2022/03/26 06:29:01;;;;;;;37.35;21.73;;;;;;;25.28;18.07;96077.94;5066874;28;20198;-74
2022/03/26 06:31:28;;;;;;;28.10;19.15;;;;;;;26.14;17.24;96079.97;5066090;28;20336;-70
2022/03/26 06:33:55;;;;;;;21.08;13.85;;;;;;;27.72;15.87;96076.47;5069193;28;20255;-72
2022/03/26 06:36:22;;;;;;;16.17;12.80;;;;;;;26.69;16.51;96075.56;5068931;28;20198;-69
2022/03/26 06:38:50;;;;;;;17.05;13.73;;;;;;;26.15;16.77;96078.19;5067704;28;20518;-72
2022/03/26 06:41:17;;;;;;;21.33;13.88;;;;;;;24.59;18.38;96082.22;5068594;28;20980;-72
2022/03/26 06:43:45;;;;;;;22.35;13.80;;;;;;;24.31;18.43;96098.13;5068239;28;20693;-72
2022/03/26 06:46:13;;;;;;;18.30;12.02;;;;;;;26.91;16.42;96080.66;5065510;28;20724;-72
2022/03/26 06:48:40;;;;;;;31.92;20.40;;;;;;;27.29;15.84;96084.50;5066622;28;20703;-73
2022/03/26 06:51:08;;;;;;;20.75;13.15;;;;;;;26.06;17.33;96087.53;5067208;28;20255;-70
2022/03/26 06:53:36;;;;;;;24.45;13.02;;;;;;;25.55;17.51;96095.81;5067455;28;20538;-71
2022/03/26 06:56:07;;;;;;;21.15;13.25;;;;;;;26.57;16.90;96094.78;5066207;28;20213;-71
2022/03/26 06:58:34;;;;;;;17.83;11.80;;;;;;;27.51;16.41;96086.94;5068583;28;20276;-71
2022/03/26 07:01:01;;;;;;;22.90;12.43;;;;;;;28.30;15.54;96092.38;5067665;28;20310;-72
2022/03/26 07:03:29;;;;;;;16.65;12.13;;;;;;;26.51;16.64;96097.88;5066356;28;20279;-71
2022/03/26 07:05:56;;;;;;;20.83;12.45;;;;;;;25.91;16.51;96099.19;5067704;28;20648;-72
2022/03/26 07:08:23;;;;;;;26.88;15.30;;;;;;;25.13;17.57;96106.88;5069079;28;20198;-73
2022/03/26 07:10:50;;;;;;;21.25;11.85;;;;;;;27.28;16.11;96088.06;5066673;28;20198;-72
2022/03/26 07:13:18;;;;;;;29.25;12.93;;;;;;;26.55;16.08;96107.13;5066687;28;20208;-72
2022/03/26 07:15:45;;;;;;;28.83;15.93;;;;;;;25.44;17.49;96101.03;5066361;28;20194;-71
2022/03/26 07:18:12;;;;;;;29.58;15.35;;;;;;;26.45;16.93;96104.44;5063816;28;20264;-70
2022/03/26 07:20:39;;;;;;;21.05;13.15;;;;;;;25.98;16.99;96116.00;5070271;28;20213;-70
2022/03/26 07:23:06;;;;;;;19.63;12.43;;;;;;;26.56;16.40;96114.00;5067980;28;20628;-71
2022/03/26 07:25:33;;;;;;;25.85;14.07;;;;;;;27.31;16.23;96103.47;5067755;28;20283;-71
2022/03/26 07:28:00;;;;;;;24.42;14.77;;;;;;;27.25;15.96;96109.19;5066727;28;20641;-72
2022/03/26 07:30:28;;;;;;;27.33;17.63;;;;;;;28.11;15.77;96098.34;5068684;28;20335;-71
2022/03/26 07:32:55;;;;;;;61.53;36.17;;;;;;;28.09;15.42;96105.50;5064902;28;20210;-71
2022/03/26 07:35:23;;;;;;;31.80;17.60;;;;;;;27.37;15.68;96105.56;5066299;28;20286;-72
2022/03/26 07:37:49;;;;;;;22.30;14.18;;;;;;;26.59;16.04;96106.75;5064163;28;20260;-70
2022/03/26 07:40:16;;;;;;;20.15;12.35;;;;;;;27.38;15.41;96107.22;5067027;28;20492;-71
2022/03/26 07:42:43;;;;;;;26.35;15.60;;;;;;;27.16;16.04;96110.81;5062852;28;20247;-71
2022/03/26 07:45:10;;;;;;;26.58;14.68;;;;;;;28.03;15.40;96106.84;5067363;28;20236;-71
2022/03/26 07:47:39;;;;;;;27.92;14.57;;;;;;;29.19;14.16;96106.22;5066548;28;20197;-71
2022/03/26 07:50:07;;;;;;;31.77;18.15;;;;;;;29.90;14.25;96109.19;5065523;28;20209;-71
2022/03/26 07:52:34;;;;;;;22.38;13.20;;;;;;;28.62;14.78;96111.28;5065942;28;20202;-70
2022/03/26 07:55:01;;;;;;;22.58;14.75;;;;;;;29.14;14.52;96108.41;5066249;28;20277;-72
2022/03/26 07:57:28;;;;;;;18.90;13.07;;;;;;;29.16;14.25;96114.34;5066986;28;20209;-70
2022/03/26 07:59:55;;;;;;;28.17;14.18;;;;;;;27.64;15.30;96116.34;5064847;28;20208;-70
2022/03/26 08:02:22;;;;;;;20.40;14.02;;;;;;;27.43;15.71;96107.69;5064563;28;20225;-70
2022/03/26 08:04:50;;;;;;;24.17;14.45;;;;;;;26.48;16.42;96113.81;5065927;28;20229;-71
2022/03/26 08:07:17;;;;;;;21.60;16.10;;;;;;;26.29;16.33;96110.00;5066059;28;20212;-72
2022/03/26 08:09:43;;;;;;;20.77;14.40;;;;;;;25.63;17.21;96111.72;5066533;28;20200;-70
2022/03/26 08:12:13;;;;;;;26.02;13.30;;;;;;;24.09;18.04;96111.78;5065008;28;20267;-71
2022/03/26 08:14:40;;;;;;;26.48;12.88;;;;;;;21.71;19.90;96122.19;5066689;28;20205;-70
2022/03/26 08:17:07;;;;;;;16.65;13.38;;;;;;;21.66;20.12;96111.28;5065950;28;20363;-70
2022/03/26 08:19:35;;;;;;;25.10;13.23;;;;;;;23.08;18.87;96110.06;5067071;28;20979;-70
2022/03/26 08:22:04;;;;;;;15.18;12.52;;;;;;;23.91;18.53;96108.72;5066087;28;20242;-70
2022/03/26 08:24:31;;;;;;;19.45;13.45;;;;;;;24.39;17.83;96106.22;5065702;28;20258;-70
2022/03/26 08:26:58;;;;;;;23.30;13.32;;;;;;;22.18;19.37;96102.94;5065523;28;20197;-70
2022/03/26 08:29:25;;;;;;;17.48;12.43;;;;;;;22.35;19.58;96109.63;5067000;28;20202;-70
2022/03/26 08:31:52;;;;;;;18.10;11.32;;;;;;;21.39;20.34;96103.44;5064257;28;20329;-70
2022/03/26 08:34:20;;;;;;;22.67;13.23;;;;;;;20.87;20.64;96104.78;5064578;28;20205;-71
2022/03/26 08:36:47;;;;;;;29.95;19.80;;;;;;;21.22;20.69;96100.19;5066443;28;20253;-70
2022/03/26 08:39:15;;;;;;;34.33;16.13;;;;;;;21.48;19.87;96102.06;5064798;28;20558;-70
2022/03/26 08:41:42;;;;;;;33.45;18.85;;;;;;;21.04;20.58;96095.13;5064584;28;20233;-70
2022/03/26 08:44:09;;;;;;;32.40;23.23;;;;;;;20.50;21.12;96100.91;5064509;28;20263;-70
2022/03/26 08:46:36;;;;;;;20.65;11.68;;;;;;;20.63;20.91;96088.94;5065156;28;20732;-70
2022/03/26 08:49:02;;;;;;;15.10;11.32;;;;;;;20.22;21.36;96097.25;5061126;28;20289;-70
2022/03/26 08:51:29;;;;;;;19.80;12.55;;;;;;;19.88;21.51;96093.06;5065433;28;20213;-70
2022/03/26 08:53:56;;;;;;;18.80;12.68;;;;;;;19.22;22.29;96089.69;5065904;28;20218;-69
2022/03/26 08:56:24;;;;;;;19.77;11.95;;;;;;;18.19;23.55;96091.28;5065035;28;20210;-71
2022/03/26 08:58:51;;;;;;;17.13;12.55;;;;;;;17.87;23.88;96091.94;5064780;28;20295;-71
2022/03/26 09:01:18;;;;;;;24.98;12.80;;;;;;;18.16;23.67;96088.84;5065093;28;20289;-71
2022/03/26 09:03:46;;;;;;;19.85;12.90;;;;;;;18.17;23.41;96087.13;5064426;28;20217;-71
2022/03/26 09:06:13;;;;;;;18.27;11.60;;;;;;;18.40;23.16;96086.03;5065229;28;20244;-70
2022/03/26 09:08:40;;;;;;;20.67;12.10;;;;;;;18.60;23.13;96078.19;5064249;28;20692;-70
2022/03/26 09:11:07;;;;;;;17.52;11.05;;;;;;;18.51;23.24;96073.47;5064943;28;20193;-70
2022/03/26 09:13:35;;;;;;;16.92;11.90;;;;;;;18.34;24.65;96069.13;5045085;28;20206;-70
2022/03/26 09:16:03;;;;;;;15.82;11.77;;;;;;;18.75;23.01;96072.31;5066249;28;20200;-70
2022/03/26 09:18:30;;;;;;;16.60;12.60;;;;;;;18.38;23.48;96067.25;5063924;28;20566;-69
2022/03/26 09:20:57;;;;;;;15.75;11.18;;;;;;;18.17;23.57;96071.69;5065572;28;20673;-70
2022/03/26 09:23:24;;;;;;;17.45;11.50;;;;;;;18.00;24.50;96073.31;5064758;28;20313;-70
2022/03/26 09:25:51;;;;;;;17.98;11.35;;;;;;;18.26;23.83;96059.22;5066149;28;20233;-70
2022/03/26 09:28:17;;;;;;;22.55;12.05;;;;;;;18.08;24.41;96065.22;5065127;28;20205;-70
2022/03/26 09:30:46;;;;;;;16.92;10.35;;;;;;;18.02;24.88;96057.81;5066128;28;20205;-70
2022/03/26 09:33:13;;;;;;;12.07;9.23;;;;;;;17.90;25.54;96053.22;5064536;28;20205;-71
2022/03/26 09:35:40;;;;;;;17.13;8.90;;;;;;;17.90;25.79;96050.66;5064653;28;20216;-70
2022/03/26 09:38:06;;;;;;;11.95;7.95;;;;;;;17.71;26.17;96049.84;5062382;28;20252;-69
2022/03/26 09:40:34;;;;;;;6.88;6.25;;;;;;;17.85;25.28;96044.88;5064129;28;20684;-69
2022/03/26 09:43:02;;;;;;;7.88;6.57;;;;;;;17.90;25.55;96035.22;5064590;28;20281;-70
2022/03/26 09:45:29;;;;;;;7.38;6.68;;;;;;;17.95;25.85;96043.56;5065146;28;20249;-70
2022/03/26 09:47:58;;;;;;;9.77;6.95;;;;;;;17.68;25.81;96036.22;5064989;28;20294;-70
2022/03/26 09:50:24;;;;;;;10.00;6.40;;;;;;;17.77;25.77;96031.56;5065761;28;20209;-70
2022/03/26 09:52:51;;;;;;;8.27;7.53;;;;;;;17.49;25.87;96030.22;5064391;28;20205;-71
2022/03/26 09:55:21;;;;;;;16.92;7.43;;;;;;;17.39;26.33;96040.97;5064110;28;20233;-71
2022/03/26 09:57:52;;;;;;;9.85;7.60;;;;;;;17.86;25.80;96023.41;5061795;28;20202;-70
2022/03/26 10:00:19;;;;;;;8.63;6.68;;;;;;;18.12;25.02;96025.59;5063424;28;20661;-70
2022/03/26 10:02:46;;;;;;;11.88;7.38;;;;;;;17.38;25.85;96019.59;5063473;28;20225;-71
2022/03/26 10:05:19;;;;;;;11.73;6.85;;;;;;;17.50;25.77;96031.06;5063557;28;20312;-70
2022/03/26 10:07:48;;;;;;;9.10;7.15;;;;;;;17.53;25.74;96021.47;5063676;28;21078;-70
2022/03/26 10:10:23;;;;;;;13.88;6.65;;;;;;;17.41;25.85;96021.19;5062531;28;20575;-70
2022/03/26 10:12:52;;;;;;;9.75;6.43;;;;;;;17.27;26.10;96008.97;5064438;28;20204;-70
2022/03/26 10:15:19;;;;;;;10.27;6.82;;;;;;;17.28;26.63;96011.47;5064757;28;20471;-71
2022/03/26 10:17:46;;;;;;;8.38;6.45;;;;;;;17.44;26.06;96006.47;5064907;28;20210;-70
2022/03/26 10:20:16;;;;;;;9.43;6.50;;;;;;;17.47;26.37;96001.19;5063078;28;20198;-70
2022/03/26 10:22:44;;;;;;;10.10;6.40;;;;;;;17.61;26.08;95995.41;5064305;28;20224;-69
2022/03/26 10:25:13;;;;;;;10.88;7.10;;;;;;;17.71;25.96;95990.72;5064928;28;20201;-71
2022/03/26 10:27:42;;;;;;;11.85;7.07;;;;;;;17.73;26.15;95996.63;5065804;28;20335;-71
2022/03/26 10:30:10;;;;;;;10.25;6.20;;;;;;;17.84;25.55;95995.19;5065904;28;20206;-71
2022/03/26 10:32:45;;;;;;;6.93;6.13;;;;;;;17.65;26.28;95990.09;5067865;28;20670;-71
2022/03/26 10:35:24;;;;;;;8.70;6.22;;;;;;;17.77;26.85;95987.88;5066380;28;20201;-71
2022/03/26 10:37:56;;;;;;;6.35;5.28;;;;;;;18.11;25.62;95982.75;5068300;28;20202;-70
2022/03/26 10:40:26;;;;;;;11.20;6.45;;;;;;;18.00;25.81;95985.03;5067105;28;20224;-71
2022/03/26 10:42:55;;;;;;;13.20;6.53;;;;;;;17.68;26.50;95976.25;5068470;28;20190;-70
2022/03/26 10:45:22;;;;;;;7.72;5.75;;;;;;;17.74;26.45;95975.97;5066009;28;20198;-70
2022/03/26 10:47:52;;;;;;;6.97;6.10;;;;;;;17.98;26.48;95966.28;5067282;28;20218;-71
2022/03/26 10:50:19;;;;;;;12.88;5.63;;;;;;;18.18;25.71;95967.88;5068076;28;20293;-70
2022/03/26 10:52:48;;;;;;;10.38;5.88;;;;;;;18.01;25.55;95963.56;5067573;28;20707;-71
2022/03/26 10:55:16;;;;;;;7.68;5.57;;;;;;;18.04;25.79;95962.56;5067880;28;20197;-71
2022/03/26 10:57:45;;;;;;;8.70;5.85;;;;;;;17.97;25.77;95964.59;5066682;28;20206;-71
2022/03/26 11:00:13;;;;;;;9.73;6.22;;;;;;;17.72;26.51;95958.97;5067812;28;20202;-70
2022/03/26 11:02:41;;;;;;;11.45;9.27;;;;;;;17.75;26.77;95954.50;5066553;28;20221;-70
2022/03/26 11:05:09;;;;;;;8.73;6.90;;;;;;;17.83;26.35;95949.81;5066499;28;20221;-70
2022/03/26 11:07:42;;;;;;;7.35;6.35;;;;;;;17.90;26.30;95948.63;5066551;28;20256;-69
2022/03/26 11:10:12;;;;;;;7.22;5.63;;;;;;;17.90;26.57;95940.06;5067346;28;20570;-70
2022/03/26 11:12:46;;;;;;;9.52;5.97;;;;;;;18.18;26.05;95932.69;5062899;28;20714;-71
2022/03/26 11:15:19;;;;;;;8.55;5.75;;;;;;;18.05;26.04;95934.22;5067535;28;20806;-71
2022/03/26 11:18:30;;;;;;;8.52;5.82;;;;;;;18.21;25.98;95922.25;5065655;28;20205;-70
2022/03/26 11:21:31;;;;;;;7.65;5.28;;;;;;;18.16;25.02;95926.78;5018051;28;20202;-70
2022/03/26 11:24:28;;;;;;;5.50;5.00;;;;;;;18.00;23.96;95924.13;5038653;28;20665;-71